Time;durP1;ratioP1;P1;durP2;ratioP2;P2;SDS_P1;SDS_P2;PMS_P1;PMS_P2;Temp;Humidity;BMP_temperature;BMP_pressure;BME280_temperature;BME280_humidity;BME280_pressure;Samples;Min_cycle;Max_cycle;Signal;HPM_P1;HPM_P2
2021/04/11 00:00:25;;;;;;;9.13;5.80;;;;;;;6.08;53.67;100464.31;5050089;28;20043;-50
2021/04/11 00:02:51;;;;;;;9.68;5.80;;;;;;;6.01;54.05;100461.44;5050031;28;20024;-53
2021/04/11 00:05:17;;;;;;;8.02;5.13;;;;;;;5.98;54.53;100467.06;5049930;28;20471;-54
2021/04/11 00:07:43;;;;;;;9.70;5.88;;;;;;;5.94;54.10;100468.31;5049772;28;20028;-51
2021/04/11 00:10:13;;;;;;;8.50;5.07;;;;;;;5.99;54.60;100468.69;5049365;28;20202;-49
2021/04/11 00:12:39;;;;;;;8.25;5.22;;;;;;;5.90;53.76;100468.78;5049933;28;20025;-53
2021/04/11 00:15:05;;;;;;;10.02;6.10;;;;;;;5.85;54.89;100469.25;5049337;28;20025;-52
2021/04/11 00:17:30;;;;;;;9.20;5.80;;;;;;;6.02;54.18;100476.31;5049743;28;20017;-53
2021/04/11 00:19:56;;;;;;;10.10;6.30;;;;;;;6.27;53.94;100479.09;5049708;28;20028;-53
2021/04/11 00:22:21;;;;;;;10.40;5.60;;;;;;;6.14;54.46;100479.53;5049447;28;20028;-54
2021/04/11 00:24:47;;;;;;;9.48;6.13;;;;;;;5.86;54.54;100482.31;5049613;28;20028;-52
2021/04/11 00:27:12;;;;;;;9.10;5.45;;;;;;;5.91;55.79;100483.66;5049502;28;20021;-49
2021/04/11 00:29:38;;;;;;;9.23;5.90;;;;;;;5.77;55.88;100477.94;5050066;28;20094;-50
2021/04/11 00:32:08;;;;;;;10.30;6.13;;;;;;;5.97;56.29;100483.06;5048870;28;20055;-52
2021/04/11 00:34:34;;;;;;;8.70;5.45;;;;;;;5.15;57.07;100368.91;5049855;28;20495;-50
2021/04/11 00:36:59;;;;;;;10.18;6.22;;;;;;;5.94;55.68;100478.03;5048543;28;20025;-49
2021/04/11 00:39:25;;;;;;;14.32;6.30;;;;;;;5.92;56.03;100485.28;5049570;28;20441;-52
2021/04/11 00:41:52;;;;;;;10.48;6.13;;;;;;;6.03;55.10;100491.19;5048468;28;20025;-50
2021/04/11 00:44:18;;;;;;;11.35;5.78;;;;;;;5.67;55.97;100485.13;5032192;28;20028;-52
2021/04/11 00:46:44;;;;;;;10.52;5.60;;;;;;;5.63;56.51;100487.22;5048929;28;20048;-53
2021/04/11 00:49:31;;;;;;;10.20;5.95;;;;;;;5.64;55.70;100488.91;5030174;28;20496;-51
2021/04/11 00:51:57;;;;;;;11.40;6.28;;;;;;;5.56;55.47;100478.28;5030299;28;20029;-52
2021/04/11 00:54:22;;;;;;;8.65;5.82;;;;;;;5.80;54.28;100484.72;5030079;28;20104;-51
2021/04/11 00:56:47;;;;;;;10.35;5.78;;;;;;;5.62;54.68;100485.59;5012488;28;20422;-53
2021/04/11 00:59:13;;;;;;;8.93;5.25;;;;;;;5.43;54.87;100476.03;5028948;28;20025;-52
2021/04/11 01:01:39;;;;;;;10.75;6.10;;;;;;;5.55;54.24;100486.34;5045057;28;20526;-53
2021/04/11 01:04:06;;;;;;;10.65;5.88;;;;;;;5.74;53.60;100494.09;5050060;28;20388;-52
2021/04/11 01:06:34;;;;;;;9.82;5.78;;;;;;;5.63;53.85;100492.50;5048490;28;20032;-50
2021/04/11 01:08:59;;;;;;;9.70;5.70;;;;;;;5.26;54.77;100480.31;5048166;28;20469;-51
2021/04/11 01:11:29;;;;;;;11.30;6.03;;;;;;;5.45;54.65;100481.16;5032133;28;20102;-50
2021/04/11 01:14:00;;;;;;;9.48;5.97;;;;;;;5.62;53.79;100482.13;5048567;28;20028;-49
2021/04/11 01:16:26;;;;;;;9.10;5.63;;;;;;;5.48;54.18;100480.84;5049654;28;20539;-52
2021/04/11 01:18:51;;;;;;;13.73;5.88;;;;;;;5.25;55.04;100477.84;5048390;28;20033;-51
2021/04/11 01:21:22;;;;;;;11.95;6.63;;;;;;;5.45;55.30;100479.34;5048422;28;20032;-52
2021/04/11 01:24:23;;;;;;;9.90;6.00;;;;;;;5.62;54.30;100474.22;5048427;28;20033;-50
2021/04/11 01:26:50;;;;;;;10.40;5.82;;;;;;;5.59;55.31;100477.13;5035402;28;20060;-50
2021/04/11 01:29:15;;;;;;;10.10;6.38;;;;;;;5.61;55.62;100477.81;5031873;28;20029;-52
2021/04/11 01:31:41;;;;;;;8.90;5.72;;;;;;;5.58;55.82;100478.09;5048260;28;20055;-52
2021/04/11 01:34:06;;;;;;;9.65;5.60;;;;;;;5.49;56.24;100474.59;5048432;28;20536;-51
2021/04/11 01:36:32;;;;;;;8.30;5.65;;;;;;;5.58;55.68;100475.47;5044294;28;20048;-50
2021/04/11 01:38:59;;;;;;;10.73;6.10;;;;;;;5.45;56.82;100475.88;5011752;28;20033;-49
2021/04/11 01:41:33;;;;;;;12.13;5.90;;;;;;;5.41;56.75;100466.63;5012092;28;20432;-48
2021/04/11 01:43:58;;;;;;;10.18;5.82;;;;;;;5.21;56.41;100477.31;5028171;28;20060;-51
2021/04/11 01:46:24;;;;;;;10.43;5.80;;;;;;;5.24;57.03;100468.28;5028347;28;20033;-49
2021/04/11 01:48:50;;;;;;;9.32;6.13;;;;;;;5.48;56.81;100467.63;5044041;28;20029;-49
2021/04/11 01:51:17;;;;;;;12.55;7.30;;;;;;;5.31;57.45;100474.59;5035482;28;20036;-52
2021/04/11 01:53:42;;;;;;;13.23;6.32;;;;;;;4.98;57.42;100471.63;5035535;28;20029;-52
2021/04/11 01:56:08;;;;;;;11.35;6.82;;;;;;;5.00;58.77;100472.31;5051738;28;20021;-53
2021/04/11 01:58:35;;;;;;;13.07;6.70;;;;;;;5.04;58.65;100470.22;5035036;28;20021;-51
2021/04/11 02:01:09;;;;;;;13.65;7.00;;;;;;;4.89;59.15;100467.25;5052901;28;20451;-52
2021/04/11 02:03:35;;;;;;;12.57;6.57;;;;;;;4.83;58.89;100467.84;5052964;28;20128;-53
2021/04/11 02:06:05;;;;;;;14.63;6.50;;;;;;;4.75;59.08;100462.50;5053107;28;20033;-52
2021/04/11 02:08:30;;;;;;;11.40;6.97;;;;;;;4.89;59.93;100467.25;5034651;28;20040;-55
2021/04/11 02:10:56;;;;;;;12.68;6.65;;;;;;;5.02;58.69;100472.19;5051125;28;20053;-52
2021/04/11 02:13:24;;;;;;;14.38;7.40;;;;;;;4.75;58.90;100463.31;5051173;28;20139;-51
2021/04/11 02:15:51;;;;;;;13.23;6.70;;;;;;;4.85;58.51;100471.16;5051395;28;20025;-54
2021/04/11 02:18:16;;;;;;;13.45;6.93;;;;;;;4.44;61.13;100479.44;5051408;28;20362;-51
2021/04/11 02:20:43;;;;;;;12.80;7.28;;;;;;;4.36;60.54;100481.13;5052724;28;20480;-51
2021/04/11 02:23:09;;;;;;;14.55;7.50;;;;;;;4.64;60.32;100474.88;5034886;28;20472;-49
2021/04/11 02:25:41;;;;;;;13.07;7.78;;;;;;;4.73;59.68;100481.09;5034457;28;20071;-52
2021/04/11 02:28:07;;;;;;;16.48;8.05;;;;;;;4.54;59.95;100487.31;5034543;28;20385;-52
2021/04/11 02:30:32;;;;;;;16.40;7.57;;;;;;;4.74;59.84;100482.78;5050682;28;20025;-53
2021/04/11 02:32:58;;;;;;;13.52;7.88;;;;;;;4.85;59.95;100479.91;5050910;28;20021;-52
2021/04/11 02:35:24;;;;;;;11.93;7.28;;;;;;;4.84;59.04;100488.00;5052550;28;20024;-51
2021/04/11 02:37:58;;;;;;;13.05;7.20;;;;;;;4.81;58.68;100485.63;5050876;28;20090;-51
2021/04/11 02:40:32;;;;;;;14.07;6.75;;;;;;;4.96;59.31;100491.25;5050921;28;20138;-49
2021/04/11 02:42:58;;;;;;;14.95;7.13;;;;;;;5.17;58.38;100496.25;5034482;28;20147;-51
2021/04/11 02:45:27;;;;;;;11.85;6.97;;;;;;;4.99;57.43;100483.00;5051998;28;20025;-51
2021/04/11 02:47:53;;;;;;;14.68;7.65;;;;;;;4.81;58.56;100489.09;5050480;28;20017;-52
2021/04/11 02:50:18;;;;;;;14.15;7.53;;;;;;;4.78;59.79;100499.09;5050659;28;20032;-50
2021/04/11 02:52:51;;;;;;;15.85;7.43;;;;;;;4.95;59.56;100503.63;5052301;28;20342;-49
2021/04/11 02:55:17;;;;;;;12.10;6.75;;;;;;;4.79;57.81;100498.97;5050799;28;20093;-52
2021/04/11 02:57:43;;;;;;;12.48;7.00;;;;;;;4.74;58.31;100497.75;5029035;28;20141;-51
2021/04/11 03:00:10;;;;;;;11.43;6.32;;;;;;;4.72;58.31;100489.16;5031699;28;20032;-54
2021/04/11 03:02:35;;;;;;;15.25;6.65;;;;;;;4.60;58.77;100504.34;5031344;28;20041;-52
2021/04/11 03:05:01;;;;;;;13.52;7.53;;;;;;;4.52;59.51;100505.06;5030568;28;20025;-51
2021/04/11 03:07:35;;;;;;;12.23;7.32;;;;;;;4.73;59.63;100515.38;5014270;28;20034;-51
2021/04/11 03:10:06;;;;;;;19.67;7.90;;;;;;;4.49;61.01;100510.63;5025970;28;20430;-53
2021/04/11 03:12:32;;;;;;;20.10;8.50;;;;;;;4.55;62.05;100514.47;5034066;28;20401;-50
2021/04/11 03:14:57;;;;;;;22.73;8.77;;;;;;;4.47;61.23;100520.47;5033478;28;20028;-49
2021/04/11 03:17:23;;;;;;;16.60;7.70;;;;;;;4.62;60.12;100519.03;5050092;28;20021;-50
2021/04/11 03:19:56;;;;;;;17.65;8.05;;;;;;;4.67;60.81;100524.69;5050085;28;20140;-52
2021/04/11 03:22:22;;;;;;;16.85;8.02;;;;;;;4.36;61.00;100524.16;5050100;28;20465;-54
2021/04/11 03:24:47;;;;;;;18.02;8.20;;;;;;;4.47;61.92;100539.78;5051472;28;20028;-50
2021/04/11 03:27:21;;;;;;;16.83;8.05;;;;;;;4.56;61.42;100539.88;5049791;28;20443;-50
2021/04/11 03:29:49;;;;;;;17.42;8.60;;;;;;;4.36;61.44;100547.88;5033700;28;20393;-49
2021/04/11 03:32:23;;;;;;;25.05;9.05;;;;;;;4.18;62.05;100541.66;5033124;28;20025;-54
2021/04/11 03:34:49;;;;;;;23.23;10.10;;;;;;;4.26;62.47;100554.94;5032953;28;20482;-51
2021/04/11 03:37:15;;;;;;;21.52;9.55;;;;;;;4.21;62.48;100563.28;5028380;28;20021;-52
2021/04/11 03:39:40;;;;;;;19.40;10.95;;;;;;;4.04;61.21;100490.28;5030125;28;20028;-49
2021/04/11 03:42:07;;;;;;;21.50;10.93;;;;;;;4.44;62.01;100553.25;5048373;28;20024;-52
2021/04/11 03:44:32;;;;;;;20.98;11.15;;;;;;;4.20;61.31;100556.34;5033157;28;20036;-52
2021/04/11 03:46:57;;;;;;;19.88;10.00;;;;;;;4.07;61.81;100553.19;5049385;28;20361;-52
2021/04/11 03:49:32;;;;;;;18.30;10.55;;;;;;;4.05;61.62;100555.13;5029838;28;20053;-52
2021/04/11 03:51:59;;;;;;;22.88;11.50;;;;;;;4.20;61.82;100550.25;5029590;28;20022;-51
2021/04/11 03:54:28;;;;;;;20.00;10.70;;;;;;;4.05;62.12;100547.22;5029544;28;20041;-51
2021/04/11 03:57:20;;;;;;;22.80;10.93;;;;;;;4.27;63.26;100560.09;5013341;28;20025;-48
2021/04/11 04:00:09;;;;;;;22.65;11.75;;;;;;;4.41;61.72;100550.88;5021080;28;20280;-50
2021/04/11 04:02:37;;;;;;;24.50;12.05;;;;;;;4.62;61.71;100555.13;5030644;28;20553;-50
2021/04/11 04:05:05;;;;;;;26.55;12.57;;;;;;;4.56;61.13;100548.63;5030893;28;20076;-48
2021/04/11 04:07:30;;;;;;;25.85;12.15;;;;;;;4.48;62.07;100556.44;5012986;28;20124;-52
2021/04/11 04:10:04;;;;;;;31.42;13.13;;;;;;;4.53;62.44;100559.44;5022985;28;20050;-50
2021/04/11 04:12:38;;;;;;;23.50;12.02;;;;;;;4.80;61.45;100563.94;5050414;28;20439;-51
2021/04/11 04:15:15;;;;;;;26.13;12.65;;;;;;;4.94;60.67;100561.78;5050120;28;20032;-50
2021/04/11 04:17:56;;;;;;;27.35;12.57;;;;;;;5.18;59.53;100563.84;5049041;28;20068;-50
2021/04/11 04:20:24;;;;;;;;;;;;;;;4.95;59.52;100566.06;5051071;28;20047;-51
2021/04/11 04:22:57;;;;;;;27.15;12.30;;;;;;;5.08;59.07;100556.00;5048809;28;20339;-49
2021/04/11 04:25:42;;;;;;;33.63;15.63;;;;;;;5.15;59.24;100569.44;5049152;28;20028;-52
2021/04/11 04:28:24;;;;;;;28.05;13.77;;;;;;;5.38;59.38;100570.66;5048876;28;20037;-50
2021/04/11 04:30:54;;;;;;;30.73;16.00;;;;;;;5.58;57.93;100576.66;5049185;28;20075;-50
2021/04/11 04:33:29;;;;;;;32.05;15.02;;;;;;;6.35;58.06;100586.72;5050479;28;20120;-50
2021/04/11 04:36:11;;;;;;;31.05;16.17;;;;;;;7.03;55.24;100575.31;5047158;28;20021;-52
2021/04/11 04:39:13;;;;;;;32.50;15.63;;;;;;;6.90;54.54;100573.13;5049129;28;20564;-51
2021/04/11 04:41:51;;;;;;;31.45;15.63;;;;;;;6.79;54.88;100581.34;5050033;28;20500;-53
2021/04/11 04:45:12;;;;;;;31.55;15.90;;;;;;;6.92;55.77;100587.00;5033141;28;20068;-53
2021/04/11 04:48:13;;;;;;;30.73;16.00;;;;;;;7.05;54.25;100582.09;5018376;28;20150;-52
2021/04/11 04:50:41;;;;;;;33.53;15.85;;;;;;;7.31;53.55;100567.13;4988828;28;20124;-50
2021/04/11 04:53:11;;;;;;;30.20;16.83;;;;;;;7.55;52.91;100583.06;5015147;28;20522;-52
2021/04/11 04:55:37;;;;;;;;;;;;;;;7.59;52.74;100586.22;5037262;28;20045;-52
2021/04/11 04:58:08;;;;;;;29.35;16.08;;;;;;;7.98;51.35;100589.06;5012272;28;19909;-52
2021/04/11 05:00:39;;;;;;;27.45;16.48;;;;;;;8.44;51.14;100590.38;5029237;28;20025;-52
2021/04/11 05:03:19;;;;;;;32.80;16.73;;;;;;;8.85;49.53;100599.03;5045262;28;20027;-51
2021/04/11 05:05:52;;;;;;;32.45;16.92;;;;;;;9.08;49.21;100587.66;5028780;28;20065;-52
2021/04/11 05:08:24;;;;;;;31.42;17.30;;;;;;;9.24;48.78;100598.22;5018709;28;20048;-52
2021/04/11 05:10:57;;;;;;;32.17;16.10;;;;;;;9.26;49.84;100590.91;5048431;28;20045;-50
2021/04/11 05:13:24;;;;;;;32.38;15.75;;;;;;;9.61;48.20;100593.19;5048696;28;20028;-52
2021/04/11 05:15:56;;;;;;;32.40;15.60;;;;;;;9.87;48.17;100598.16;5049877;28;20025;-51
2021/04/11 05:18:41;;;;;;;30.15;14.93;;;;;;;10.00;47.47;100593.06;5048280;28;20360;-52
2021/04/11 05:21:12;;;;;;;31.75;16.42;;;;;;;10.71;45.37;100609.53;5034527;28;20051;-53
2021/04/11 05:23:44;;;;;;;27.88;15.98;;;;;;;10.83;45.49;100614.41;5032223;28;20057;-52
2021/04/11 05:26:20;;;;;;;42.03;22.90;;;;;;;10.72;45.32;100607.72;5035358;28;20044;-50
2021/04/11 05:29:13;;;;;;;35.28;20.08;;;;;;;10.85;45.07;100605.25;5049840;28;20052;-51
2021/04/11 05:31:39;;;;;;;28.23;14.75;;;;;;;11.22;44.31;100608.78;5053272;28;20032;-52
2021/04/11 05:34:05;;;;;;;23.55;13.25;;;;;;;11.79;43.06;100604.47;5053375;28;20025;-48
2021/04/11 05:36:45;;;;;;;25.90;13.65;;;;;;;12.01;42.30;100618.66;5052101;28;20029;-51
2021/04/11 05:39:25;;;;;;;24.13;13.25;;;;;;;12.23;40.73;100610.66;5053308;28;20052;-50
2021/04/11 05:42:39;;;;;;;21.52;13.23;;;;;;;12.71;41.08;100619.59;5053093;28;20112;-49
2021/04/11 05:45:10;;;;;;;23.10;12.90;;;;;;;12.91;39.96;100616.25;5006736;28;20043;-48
2021/04/11 05:47:51;;;;;;;25.60;13.68;;;;;;;13.03;39.36;100617.31;5051443;28;20024;-51
2021/04/11 05:50:20;;;;;;;24.60;13.75;;;;;;;13.90;39.32;100604.25;5051433;28;20063;-51
2021/04/11 05:52:52;;;;;;;20.75;12.60;;;;;;;14.21;37.57;100614.34;5051487;28;20119;-48
2021/04/11 05:55:18;;;;;;;17.48;11.25;;;;;;;13.90;37.84;100606.94;5051655;28;20071;-50
2021/04/11 05:57:47;;;;;;;17.88;11.38;;;;;;;13.62;37.52;100607.06;5051561;28;20025;-47
2021/04/11 06:00:14;;;;;;;19.48;11.50;;;;;;;13.53;38.03;100605.59;5052973;28;20052;-49
2021/04/11 06:02:44;;;;;;;18.17;11.40;;;;;;;13.73;37.32;100608.31;5035146;28;20029;-52
2021/04/11 06:05:13;;;;;;;18.63;11.55;;;;;;;15.13;35.95;100595.63;5051743;28;20028;-50
2021/04/11 06:08:02;;;;;;;20.20;11.63;;;;;;;14.95;35.65;100596.31;5035253;28;20112;-48
2021/04/11 06:10:36;;;;;;;18.58;11.82;;;;;;;14.84;35.28;100605.00;5029486;28;20076;-51
2021/04/11 06:13:08;;;;;;;19.20;11.45;;;;;;;15.11;35.88;100605.72;5035469;28;20037;-50
2021/04/11 06:15:35;;;;;;;18.75;11.02;;;;;;;14.98;34.78;100603.09;5034966;28;20056;-52
2021/04/11 06:18:04;;;;;;;20.10;11.63;;;;;;;15.56;34.80;100594.19;5034811;28;20079;-52
2021/04/11 06:20:29;;;;;;;19.00;12.30;;;;;;;15.46;34.55;100597.34;5034865;28;20485;-50
2021/04/11 06:23:13;;;;;;;18.40;11.30;;;;;;;15.12;34.93;100601.22;5034774;28;20073;-50
2021/04/11 06:25:47;;;;;;;27.08;17.10;;;;;;;15.30;34.37;100604.00;5043375;28;20044;-52
2021/04/11 06:28:36;;;;;;;33.00;21.92;;;;;;;15.40;34.10;100603.53;5019695;28;20029;-52
2021/04/11 06:31:03;;;;;;;17.30;11.52;;;;;;;15.28;33.95;100603.41;5032838;28;20158;-49
2021/04/11 06:33:36;;;;;;;16.52;10.88;;;;;;;15.16;34.37;100605.13;5015135;28;20191;-50
2021/04/11 06:36:08;;;;;;;19.20;11.18;;;;;;;15.57;34.01;100603.88;5041812;28;20096;-49
2021/04/11 06:38:39;;;;;;;18.73;11.23;;;;;;;15.32;34.29;100595.75;5050780;28;20071;-48
2021/04/11 06:41:07;;;;;;;17.48;10.20;;;;;;;15.43;34.93;100597.75;5041810;28;20020;-53
2021/04/11 06:43:51;;;;;;;16.17;10.95;;;;;;;16.19;34.21;100604.09;5040787;28;20023;-48
2021/04/11 06:46:35;;;;;;;20.58;12.35;;;;;;;16.49;32.30;100576.56;5045582;28;20031;-50
2021/04/11 06:49:22;;;;;;;19.92;13.02;;;;;;;16.57;32.13;100603.13;5037563;28;20132;-52
2021/04/11 06:51:47;;;;;;;20.10;12.30;;;;;;;16.25;33.48;100605.88;5039961;28;20090;-51
2021/04/11 06:55:09;;;;;;;14.95;10.77;;;;;;;16.10;32.51;100616.13;5040713;28;20029;-49
2021/04/11 06:57:36;;;;;;;16.92;10.50;;;;;;;17.74;30.63;100616.41;4998164;28;20048;-51
2021/04/11 07:00:38;;;;;;;16.42;11.50;;;;;;;17.52;30.93;100616.09;4990581;28;20060;-49
2021/04/11 07:03:25;;;;;;;22.80;13.63;;;;;;;16.72;31.61;100614.34;5021865;28;20037;-52
2021/04/11 07:06:27;;;;;;;23.13;13.18;;;;;;;16.47;33.00;100613.53;5031665;28;20030;-52
2021/04/11 07:09:11;;;;;;;22.30;14.73;;;;;;;18.51;29.64;100615.59;5035832;28;20130;-50
2021/04/11 07:12:00;;;;;;;16.83;10.90;;;;;;;19.14;27.58;100615.88;5049246;28;20553;-49
2021/04/11 07:14:59;;;;;;;16.58;9.98;;;;;;;19.68;27.84;100615.56;5043313;28;20625;-51
2021/04/11 07:17:33;;;;;;;15.27;10.07;;;;;;;18.97;28.55;100612.31;5031306;28;20036;-51
2021/04/11 07:20:23;;;;;;;23.42;14.40;;;;;;;18.78;29.83;100617.00;5031158;28;20027;-52
2021/04/11 07:22:48;;;;;;;28.92;19.42;;;;;;;19.37;28.75;100619.56;5031525;28;20036;-50
2021/04/11 07:25:31;;;;;;;16.67;10.30;;;;;;;20.34;27.16;100613.16;5031041;28;20021;-51
2021/04/11 07:28:27;;;;;;;17.38;9.90;;;;;;;19.84;27.48;100616.69;5029440;28;20022;-52
2021/04/11 07:31:22;;;;;;;18.33;10.15;;;;;;;20.53;26.46;100613.72;5030729;28;20037;-52
2021/04/11 07:34:28;;;;;;;14.30;10.23;;;;;;;20.88;26.71;100615.28;5027385;28;20045;-51
2021/04/11 07:37:24;;;;;;;18.05;10.43;;;;;;;21.37;25.62;100623.47;5018945;28;20113;-49
2021/04/11 07:40:18;;;;;;;27.02;16.15;;;;;;;21.65;24.90;100619.75;5038927;28;20036;-50
2021/04/11 07:43:02;;;;;;;16.92;11.10;;;;;;;21.54;25.55;100620.69;5035297;28;20097;-51
2021/04/11 07:45:29;;;;;;;15.68;9.57;;;;;;;20.70;27.10;100621.84;5049989;28;20033;-50
2021/04/11 07:48:32;;;;;;;13.70;9.73;;;;;;;21.56;24.82;100621.25;5047996;28;20135;-50
2021/04/11 07:51:13;;;;;;;13.57;9.40;;;;;;;22.57;24.22;100606.09;5050018;28;20036;-51
2021/04/11 07:53:54;;;;;;;15.02;9.40;;;;;;;23.12;23.07;100603.97;5042934;28;20036;-51
2021/04/11 07:56:50;;;;;;;20.88;10.70;;;;;;;21.68;25.64;100599.44;5015534;28;20482;-52
2021/04/11 07:59:36;;;;;;;11.65;8.45;;;;;;;22.86;23.46;100594.88;5046812;28;20052;-51
2021/04/11 08:02:08;;;;;;;13.60;8.82;;;;;;;22.77;23.83;100588.31;5043443;28;20032;-49
2021/04/11 08:05:09;;;;;;;16.58;10.00;;;;;;;23.23;22.66;100597.47;5037522;28;20103;-39
2021/04/11 08:07:54;;;;;;;;;;;;;;;22.71;23.60;100598.31;5038408;28;20032;-39
2021/04/11 08:10:41;;;;;;;12.88;8.95;;;;;;;22.12;23.69;100595.75;5039391;28;20022;-39
2021/04/11 08:13:16;;;;;;;15.75;9.50;;;;;;;22.18;24.13;100592.81;5040076;28;20021;-38
2021/04/11 08:16:04;;;;;;;15.45;9.30;;;;;;;21.65;25.05;100597.25;5023738;28;20116;-39
2021/04/11 08:18:57;;;;;;;19.92;14.18;;;;;;;22.53;23.37;100596.06;5042231;28;20021;-37
2021/04/11 08:21:29;;;;;;;17.20;9.43;;;;;;;22.80;23.26;100595.94;5037862;28;20109;-38
2021/04/11 08:24:24;;;;;;;14.73;9.55;;;;;;;23.05;23.46;100600.66;5041746;28;20798;-39
2021/04/11 08:27:07;;;;;;;12.65;8.55;;;;;;;23.52;22.91;100601.63;5035229;28;20053;-39
2021/04/11 08:30:20;;;;;;;12.05;7.90;;;;;;;22.26;24.22;100602.41;5029068;28;20246;-39
2021/04/11 08:32:54;;;;;;;;;;;;;;;22.88;23.80;100603.56;5007184;28;20110;-39
2021/04/11 08:35:25;;;;;;;13.07;9.07;;;;;;;22.45;24.55;100600.91;5045341;28;20357;-38
2021/04/11 08:38:09;;;;;;;12.02;8.48;;;;;;;22.33;24.64;100603.00;5049493;28;20052;-38
2021/04/11 08:41:02;;;;;;;15.38;7.85;;;;;;;22.56;24.65;100596.34;5049316;28;20472;-38
2021/04/11 08:43:40;;;;;;;10.05;7.45;;;;;;;23.19;24.19;100592.88;5049433;28;20049;-39
2021/04/11 08:46:18;;;;;;;11.60;7.88;;;;;;;22.75;25.79;100582.31;5047910;28;20085;-40
2021/04/11 08:49:04;;;;;;;19.00;11.93;;;;;;;22.78;24.65;100581.81;5047781;28;20104;-39
2021/04/11 08:51:50;;;;;;;14.05;10.25;;;;;;;22.71;25.13;100583.94;5048434;28;20013;-39
2021/04/11 08:54:26;;;;;;;13.30;8.88;;;;;;;22.87;24.82;100582.13;5047666;28;20029;-38
2021/04/11 08:56:57;;;;;;;16.25;9.35;;;;;;;23.69;24.21;100588.59;5048947;28;20077;-38
2021/04/11 08:59:51;;;;;;;14.85;8.80;;;;;;;24.25;23.99;100576.91;5049749;28;20021;-38
2021/04/11 09:02:26;;;;;;;16.48;10.57;;;;;;;24.84;21.99;100571.88;5047409;28;20091;-39
2021/04/11 09:05:10;;;;;;;18.23;10.40;;;;;;;23.70;23.98;100579.34;5052391;28;20059;-39
2021/04/11 09:07:56;;;;;;;18.02;10.48;;;;;;;24.31;23.54;100575.84;5053122;28;20033;-38
2021/04/11 09:10:47;;;;;;;15.75;10.57;;;;;;;23.83;23.10;100571.78;5052664;28;20051;-39
2021/04/11 09:13:25;;;;;;;18.13;12.00;;;;;;;22.12;25.56;100569.44;5053121;28;20021;-38
2021/04/11 09:16:09;;;;;;;19.30;12.23;;;;;;;20.40;27.52;100560.81;5051296;28;20326;-39
2021/04/11 09:18:35;;;;;;;17.08;12.73;;;;;;;21.37;26.37;100565.81;5052729;28;20053;-38
2021/04/11 09:21:34;;;;;;;17.65;11.20;;;;;;;22.12;26.19;100558.59;5052351;28;20059;-39
2021/04/11 09:24:10;;;;;;;16.42;12.25;;;;;;;21.60;26.00;100553.88;5051237;28;20029;-39
2021/04/11 09:26:54;;;;;;;18.95;12.10;;;;;;;22.71;25.72;100543.25;5051050;28;20041;-40
2021/04/11 09:29:30;;;;;;;17.17;11.48;;;;;;;22.18;26.79;100537.78;5031393;28;20128;-40
2021/04/11 09:32:24;;;;;;;24.65;16.50;;;;;;;23.12;25.03;100536.09;5031517;28;20048;-39
2021/04/11 09:35:06;;;;;;;25.63;16.50;;;;;;;23.29;24.52;100526.91;5010466;28;20558;-38
2021/04/11 09:37:50;;;;;;;18.10;12.27;;;;;;;23.38;24.51;100525.28;5026617;28;20021;-39
2021/04/11 09:40:37;;;;;;;19.27;12.07;;;;;;;21.98;25.19;100525.72;5041586;28;20032;-40
2021/04/11 09:43:08;;;;;;;17.85;12.15;;;;;;;22.25;25.60;100514.00;5041393;28;20557;-39
2021/04/11 09:46:11;;;;;;;20.48;12.60;;;;;;;22.92;25.78;100517.81;5051965;28;20135;-39
2021/04/11 09:48:57;;;;;;;19.83;12.52;;;;;;;22.96;24.53;100512.66;5038440;28;20141;-39
2021/04/11 09:51:56;;;;;;;19.17;13.65;;;;;;;23.03;24.49;100519.50;5031303;28;20025;-39
2021/04/11 09:54:31;;;;;;;20.85;13.77;;;;;;;22.57;24.87;100511.19;5031111;28;20484;-39
2021/04/11 09:57:09;;;;;;;17.50;12.02;;;;;;;22.63;24.68;100509.31;5031195;28;20119;-39
2021/04/11 09:59:56;;;;;;;16.77;11.80;;;;;;;22.11;26.04;100513.63;5025590;28;20159;-39
2021/04/11 10:02:28;;;;;;;22.10;11.75;;;;;;;22.54;25.90;100511.72;5037041;28;20521;-39
2021/04/11 10:05:20;;;;;;;17.10;11.82;;;;;;;22.28;25.87;100510.78;5032181;28;20105;-39
2021/04/11 10:08:04;;;;;;;19.88;11.95;;;;;;;22.08;25.50;100506.00;5045469;28;20516;-39
2021/04/11 10:10:58;;;;;;;19.25;12.38;;;;;;;22.05;25.44;100501.94;5051392;28;20049;-39
2021/04/11 10:13:31;;;;;;;17.35;11.50;;;;;;;21.57;25.46;100486.69;5051040;28;20104;-39
2021/04/11 10:16:25;;;;;;;18.77;11.52;;;;;;;21.27;26.00;100499.66;5050282;28;20323;-38
2021/04/11 10:19:17;;;;;;;18.73;12.15;;;;;;;20.98;26.96;100503.69;5034467;28;20021;-38
2021/04/11 10:22:08;;;;;;;25.88;11.63;;;;;;;21.91;25.90;100489.09;5049702;28;20081;-38
2021/04/11 10:24:45;;;;;;;17.48;11.77;;;;;;;22.33;25.18;100488.28;5050917;28;20049;-39
2021/04/11 10:27:16;;;;;;;16.95;10.82;;;;;;;21.84;26.65;100492.84;5051186;28;20024;-38
2021/04/11 10:29:42;;;;;;;16.98;10.07;;;;;;;20.74;28.27;100484.22;5051122;28;20171;-39
2021/04/11 10:32:36;;;;;;;21.48;9.73;;;;;;;19.58;29.09;100489.31;5033369;28;20422;-39
2021/04/11 10:35:04;;;;;;;14.23;9.60;;;;;;;19.57;29.47;100471.47;5049770;28;20116;-38
2021/04/11 10:37:46;;;;;;;12.80;8.98;;;;;;;19.32;29.24;100482.66;5049444;28;20404;-39
2021/04/11 10:40:33;;;;;;;14.93;8.90;;;;;;;20.18;28.04;100485.13;5049601;28;20461;-38
2021/04/11 10:43:23;;;;;;;14.88;8.63;;;;;;;20.66;27.18;100475.50;5050364;28;20774;-38
2021/04/11 10:45:58;;;;;;;14.20;9.20;;;;;;;20.80;27.64;100477.81;5050875;28;20040;-39
2021/04/11 10:48:54;;;;;;;12.43;7.47;;;;;;;20.19;27.79;100483.25;5033772;28;20047;-39
2021/04/11 10:51:35;;;;;;;11.13;8.02;;;;;;;20.19;27.63;100481.34;5050705;28;20025;-40
2021/04/11 10:54:19;;;;;;;11.68;7.35;;;;;;;20.87;27.04;100483.84;5049625;28;20025;-41
2021/04/11 10:57:04;;;;;;;11.02;6.88;;;;;;;22.21;25.83;100477.63;5050801;28;20048;-38
2021/04/11 10:59:40;;;;;;;10.88;6.45;;;;;;;23.47;24.74;100471.25;5049289;28;20029;-40
2021/04/11 11:02:36;;;;;;;9.27;6.90;;;;;;;23.99;23.96;100459.28;5049169;28;20029;-38
2021/04/11 11:05:23;;;;;;;10.05;6.85;;;;;;;21.61;25.98;100464.25;5050667;28;20112;-39
2021/04/11 11:08:13;;;;;;;14.45;6.32;;;;;;;21.53;26.69;100463.91;5050475;28;20075;-38
2021/04/11 11:11:02;;;;;;;10.98;6.38;;;;;;;20.95;26.67;100453.63;5049042;28;20120;-39
2021/04/11 11:13:36;;;;;;;9.35;5.00;;;;;;;22.02;26.13;100445.53;5049357;28;20031;-39
2021/04/11 11:16:27;;;;;;;8.07;5.10;;;;;;;22.16;23.44;100451.34;5050348;28;20063;-40
2021/04/11 11:18:58;;;;;;;7.40;5.22;;;;;;;21.37;24.48;100441.28;5049106;28;20040;-39
2021/04/11 11:21:45;;;;;;;7.85;5.72;;;;;;;21.12;27.09;100442.69;5048402;28;20021;-39
2021/04/11 11:24:22;;;;;;;8.20;5.50;;;;;;;22.14;25.45;100434.53;5048843;28;20420;-39
2021/04/11 11:27:06;;;;;;;7.93;5.88;;;;;;;21.74;26.31;100429.66;5048833;28;20528;-40
2021/04/11 11:30:03;;;;;;;8.73;5.90;;;;;;;22.72;25.45;100431.75;5049745;28;20021;-40
2021/04/11 11:32:36;;;;;;;7.40;5.15;;;;;;;21.79;26.73;100427.00;5049894;28;20103;-39
2021/04/11 11:35:06;;;;;;;8.27;5.22;;;;;;;20.36;28.32;100424.53;5051114;28;20119;-39
2021/04/11 11:37:46;;;;;;;9.32;5.07;;;;;;;20.55;28.35;100419.63;5050964;28;20100;-40
2021/04/11 11:40:43;;;;;;;6.55;4.72;;;;;;;20.09;27.47;100416.38;5048127;28;20024;-39
2021/04/11 11:43:27;;;;;;;5.55;4.15;;;;;;;20.83;26.54;100412.41;5031228;28;20057;-39
2021/04/11 11:46:35;;;;;;;5.32;4.15;;;;;;;20.53;26.38;100405.56;5031171;28;20109;-38
2021/04/11 11:49:10;;;;;;;5.95;4.20;;;;;;;20.75;25.18;100404.72;5043747;28;20136;-38
2021/04/11 11:51:38;;;;;;;10.07;4.97;;;;;;;21.24;24.83;100401.94;5046367;28;20481;-39
2021/04/11 11:54:15;;;;;;;7.85;4.60;;;;;;;21.14;23.55;100397.25;5046268;28;20033;-38
2021/04/11 11:56:48;;;;;;;7.55;4.38;;;;;;;21.73;23.41;100393.66;5030932;28;20033;-40
2021/04/11 11:59:30;;;;;;;6.03;3.78;;;;;;;21.53;23.65;100382.69;5026441;28;20412;-50
2021/04/11 12:02:12;;;;;;;6.07;4.30;;;;;;;20.97;25.47;100381.13;5024812;28;20026;-53